Time;durP1;ratioP1;P1;durP2;ratioP2;P2;SDS_P1;SDS_P2;PMS_P1;PMS_P2;Temp;Humidity;BMP_temperature;BMP_pressure;BME280_temperature;BME280_humidity;BME280_pressure;Samples;Min_cycle;Max_cycle;Signal;HPM_P1;HPM_P2
2022/04/30 00:02:10;;;;;;;23.15;14.57;;;;;;;14.00;57.94;95565.56;5051376;28;20033;-81
2022/04/30 00:04:38;;;;;;;30.52;16.60;;;;;;;14.46;57.94;95627.97;5033173;28;20025;-81
2022/04/30 00:07:03;;;;;;;30.63;15.55;;;;;;;14.30;58.32;95590.00;5033254;28;20334;-82
2022/04/30 00:09:30;;;;;;;23.75;15.27;;;;;;;14.46;58.04;95646.66;5050653;28;20419;-82
2022/04/30 00:11:56;;;;;;;24.02;16.02;;;;;;;14.45;58.31;95641.59;5032939;28;20489;-82
2022/04/30 00:14:22;;;;;;;26.10;14.52;;;;;;;14.24;58.78;95641.03;5032647;28;20083;-82
2022/04/30 00:16:48;;;;;;;23.80;14.52;;;;;;;13.96;58.17;95597.31;5050674;28;20102;-81
2022/04/30 00:19:14;;;;;;;29.45;14.90;;;;;;;14.44;58.59;95637.34;5032905;28;20040;-82
2022/04/30 00:21:40;;;;;;;31.17;15.10;;;;;;;14.27;58.61;95649.25;5033098;28;20103;-81
2022/04/30 00:24:06;;;;;;;21.92;13.45;;;;;;;13.74;58.38;95608.50;5032960;28;20053;-81
2022/04/30 00:26:32;;;;;;;27.48;14.75;;;;;;;12.78;59.76;95468.25;5051445;28;20051;-81
2022/04/30 00:28:58;;;;;;;25.35;14.05;;;;;;;13.63;58.87;95590.25;5033390;28;20043;-81
2022/04/30 00:31:25;;;;;;;17.08;12.20;;;;;;;13.80;58.96;95649.25;5033054;28;20029;-81
2022/04/30 00:33:51;;;;;;;21.80;13.43;;;;;;;13.79;58.81;95645.78;5032437;28;20036;-81
2022/04/30 00:36:16;;;;;;;18.27;11.82;;;;;;;12.96;58.48;95496.03;5031948;28;20051;-81
2022/04/30 00:38:42;;;;;;;20.45;12.20;;;;;;;13.87;58.60;95639.03;5032684;28;20034;-82
2022/04/30 00:41:08;;;;;;;24.00;13.02;;;;;;;13.41;58.32;95577.41;5031918;28;20497;-81
2022/04/30 00:43:50;;;;;;;15.43;11.48;;;;;;;13.30;58.45;95557.25;5032178;28;20366;-81
2022/04/30 00:46:19;;;;;;;22.67;12.00;;;;;;;13.74;58.19;95637.03;5032157;28;20032;-81
2022/04/30 00:48:45;;;;;;;15.20;11.43;;;;;;;13.82;58.79;95650.53;5050477;28;20036;-81
2022/04/30 00:51:15;;;;;;;24.88;11.57;;;;;;;13.81;58.26;95640.16;5049978;28;20116;-81
2022/04/30 00:53:44;;;;;;;21.95;12.35;;;;;;;13.91;58.12;95645.38;5050167;28;20576;-81
2022/04/30 00:56:12;;;;;;;17.00;11.43;;;;;;;13.29;58.64;95574.31;5015223;28;20028;-81
2022/04/30 00:58:43;;;;;;;17.58;11.93;;;;;;;13.21;58.69;95564.25;5050146;28;20452;-81
2022/04/30 01:01:09;;;;;;;18.60;11.02;;;;;;;13.38;58.85;95604.59;5032143;28;20124;-81
2022/04/30 01:03:34;;;;;;;20.85;13.02;;;;;;;12.80;59.20;95529.97;5031991;28;20098;-81
2022/04/30 01:06:01;;;;;;;15.65;11.52;;;;;;;13.22;58.46;95557.84;5048885;28;20037;-81
2022/04/30 01:08:27;;;;;;;19.48;11.27;;;;;;;13.83;58.50;95627.34;5031787;28;20041;-81
2022/04/30 01:10:54;;;;;;;20.60;12.07;;;;;;;13.87;58.39;95631.06;5049811;28;20036;-81
2022/04/30 01:13:20;;;;;;;15.68;11.45;;;;;;;13.66;58.28;95625.09;5050211;28;20098;-82
2022/04/30 01:15:46;;;;;;;15.43;10.48;;;;;;;13.65;58.22;95631.53;5049861;28;20037;-81
2022/04/30 01:18:12;;;;;;;19.67;12.02;;;;;;;12.78;58.87;95534.78;5031940;28;20560;-81
2022/04/30 01:20:43;;;;;;;16.15;10.65;;;;;;;13.64;58.60;95637.94;5049550;28;20087;-81
2022/04/30 01:23:10;;;;;;;17.02;10.65;;;;;;;13.35;58.66;95568.66;5031500;28;20087;-82
2022/04/30 01:25:38;;;;;;;16.33;11.48;;;;;;;13.44;58.38;95577.63;5031517;28;20033;-83
2022/04/30 01:28:04;;;;;;;18.70;11.38;;;;;;;13.67;58.31;95609.91;5050067;28;20017;-82
2022/04/30 01:30:29;;;;;;;15.32;10.60;;;;;;;13.07;58.46;95522.28;5049510;28;20029;-81
2022/04/30 01:38:33;;;;;;;19.90;12.35;;;;;;;13.49;59.55;95603.44;5048785;28;20532;-82
2022/04/30 01:40:59;;;;;;;20.60;11.80;;;;;;;12.94;59.13;95498.19;5049280;28;20356;-83
2022/04/30 01:43:26;;;;;;;16.70;11.43;;;;;;;12.93;59.61;95526.66;5049738;28;20613;-81
2022/04/30 01:45:53;;;;;;;22.10;11.57;;;;;;;13.22;59.46;95556.00;5031268;28;20526;-82
2022/04/30 01:48:20;;;;;;;14.70;11.27;;;;;;;13.17;59.84;95563.25;5049235;28;20040;-82
2022/04/30 01:50:45;;;;;;;16.55;11.52;;;;;;;13.02;60.11;95540.97;5049163;28;20029;-82
2022/04/30 01:53:11;;;;;;;22.63;12.35;;;;;;;13.63;59.84;95627.56;5049563;28;20415;-82
2022/04/30 01:55:37;;;;;;;21.40;11.88;;;;;;;13.19;59.80;95563.75;5049116;28;20059;-81
2022/04/30 01:58:03;;;;;;;18.80;11.32;;;;;;;13.51;60.21;95620.72;5048596;28;20040;-81
2022/04/30 02:00:29;;;;;;;20.15;12.05;;;;;;;12.94;60.75;95570.84;5049439;28;20037;-81
2022/04/30 02:03:00;;;;;;;22.80;12.43;;;;;;;13.38;60.63;95628.56;5049249;28;20039;-82
2022/04/30 02:05:26;;;;;;;19.58;11.82;;;;;;;12.92;61.03;95567.66;5031353;28;20035;-82
2022/04/30 02:08:04;;;;;;;21.17;11.63;;;;;;;13.33;61.05;95624.09;5030836;28;20033;-82
2022/04/30 02:10:29;;;;;;;29.45;11.88;;;;;;;12.91;61.88;95587.38;5030957;28;20032;-82
2022/04/30 02:12:55;;;;;;;20.83;11.27;;;;;;;12.53;61.65;95516.31;5031150;28;20506;-82
2022/04/30 02:15:22;;;;;;;20.70;11.85;;;;;;;12.67;61.28;95533.25;5049234;28;20033;-82
2022/04/30 02:17:49;;;;;;;20.90;11.77;;;;;;;13.31;61.34;95622.78;5030436;28;20041;-81
2022/04/30 02:20:28;;;;;;;26.33;13.80;;;;;;;12.58;61.36;95517.09;5030653;28;20048;-82
2022/04/30 02:22:56;;;;;;;23.40;12.32;;;;;;;12.48;62.66;95551.75;5030543;28;20057;-81
2022/04/30 02:25:22;;;;;;;16.27;11.60;;;;;;;12.27;62.47;95508.53;5048874;28;20478;-81
2022/04/30 02:27:50;;;;;;;22.33;12.07;;;;;;;12.63;62.45;95546.34;5049079;28;20068;-81
2022/04/30 02:30:17;;;;;;;18.05;11.77;;;;;;;11.84;62.54;95424.25;5048776;28;20114;-82
2022/04/30 02:32:49;;;;;;;18.85;11.63;;;;;;;12.75;63.13;95569.91;5048798;28;20483;-82
2022/04/30 02:35:20;;;;;;;21.80;12.30;;;;;;;13.06;63.17;95613.09;5030710;28;20041;-81
2022/04/30 02:37:49;;;;;;;19.52;11.93;;;;;;;12.36;62.82;95492.78;5030469;28;20128;-82
2022/04/30 02:40:16;;;;;;;29.65;12.95;;;;;;;12.97;62.27;95580.16;5048151;28;20041;-82
2022/04/30 02:42:42;;;;;;;21.83;13.10;;;;;;;12.14;62.43;95487.84;5030244;28;20040;-82
2022/04/30 02:45:12;;;;;;;18.92;12.02;;;;;;;12.85;62.18;95579.69;5048351;28;20040;-82
2022/04/30 02:47:39;;;;;;;20.50;12.55;;;;;;;12.36;62.43;95509.53;5048188;28;20032;-82
2022/04/30 02:50:08;;;;;;;26.55;12.95;;;;;;;12.94;61.94;95575.38;5048451;28;20120;-81
2022/04/30 02:52:34;;;;;;;25.48;13.50;;;;;;;12.91;61.57;95551.97;5048274;28;20086;-81
2022/04/30 02:55:00;;;;;;;22.77;12.13;;;;;;;13.28;61.66;95613.47;5048176;28;20499;-81
2022/04/30 02:57:37;;;;;;;20.85;13.48;;;;;;;12.54;62.23;95509.94;5030279;28;20029;-82
2022/04/30 03:00:06;;;;;;;22.88;13.13;;;;;;;12.99;62.99;95613.41;5047464;28;20033;-82
2022/04/30 03:02:31;;;;;;;22.05;12.45;;;;;;;12.97;62.80;95610.22;5030146;28;20104;-82
2022/04/30 03:04:56;;;;;;;19.20;12.15;;;;;;;12.07;63.59;95491.91;5048130;28;20130;-82
2022/04/30 03:07:22;;;;;;;16.60;11.48;;;;;;;12.38;63.35;95527.88;5047861;28;20044;-82
2022/04/30 03:09:49;;;;;;;17.35;11.63;;;;;;;12.32;62.95;95497.06;5048314;28;20048;-81
2022/04/30 03:12:15;;;;;;;26.67;13.07;;;;;;;11.97;63.25;95459.00;5029619;28;20105;-82
2022/04/30 03:14:42;;;;;;;21.98;12.93;;;;;;;12.13;62.94;95477.53;5048193;28;20032;-82
2022/04/30 03:22:36;;;;;;;23.73;12.30;;;;;;;12.38;63.03;95528.66;5047458;28;20043;-81
2022/04/30 03:25:02;;;;;;;21.17;12.90;;;;;;;11.95;63.28;95455.03;5047693;28;20117;-82
2022/04/30 03:27:28;;;;;;;19.05;12.38;;;;;;;12.67;63.08;95565.19;5047334;28;20028;-82
2022/04/30 03:29:53;;;;;;;21.17;12.90;;;;;;;12.27;63.07;95513.84;5047468;28;20040;-82
2022/04/30 03:32:24;;;;;;;23.42;13.52;;;;;;;13.01;62.52;95613.13;5048039;28;20033;-82
2022/04/30 03:34:50;;;;;;;27.10;13.90;;;;;;;11.77;62.93;95447.66;5047536;28;20033;-82
2022/04/30 03:37:15;;;;;;;23.73;13.27;;;;;;;12.54;62.64;95555.16;5048120;28;20063;-82
2022/04/30 03:39:41;;;;;;;31.90;13.85;;;;;;;11.45;63.65;95413.53;5047673;28;20029;-82
2022/04/30 03:42:06;;;;;;;30.92;14.75;;;;;;;11.57;64.42;95467.94;5047982;28;20442;-82
2022/04/30 03:44:32;;;;;;;27.45;14.27;;;;;;;12.65;63.62;95624.03;5047393;28;20113;-81
2022/04/30 03:46:57;;;;;;;25.23;12.88;;;;;;;11.36;63.72;95436.44;5047682;28;20036;-82
2022/04/30 03:49:23;;;;;;;27.52;15.50;;;;;;;11.15;64.24;95433.03;5029652;28;20439;-81
2022/04/30 03:51:49;;;;;;;25.77;15.02;;;;;;;11.94;64.03;95573.03;5029217;28;20033;-81
2022/04/30 03:54:14;;;;;;;26.65;16.15;;;;;;;11.13;64.57;95464.38;5047422;28;20037;-81
2022/04/30 03:56:40;;;;;;;26.58;15.93;;;;;;;11.73;64.36;95551.03;5047691;28;20137;-81
2022/04/30 03:59:05;;;;;;;33.35;15.55;;;;;;;12.20;64.58;95606.44;5047247;28;20037;-81
2022/04/30 04:01:31;;;;;;;37.20;18.20;;;;;;;11.88;64.44;95542.25;5047380;28;20431;-81
2022/04/30 04:04:00;;;;;;;30.02;16.80;;;;;;;11.89;64.25;95573.84;5029220;28;20033;-82
2022/04/30 04:06:26;;;;;;;27.33;15.73;;;;;;;11.53;63.79;95500.59;5047120;28;20089;-81
2022/04/30 04:08:52;;;;;;;30.52;17.23;;;;;;;11.17;63.99;95444.97;5047946;28;20120;-81
2022/04/30 04:11:18;;;;;;;27.88;16.73;;;;;;;12.24;64.02;95591.50;5047603;28;20032;-81
2022/04/30 04:19:12;;;;;;;28.63;15.93;;;;;;;12.77;63.21;95631.66;5047740;28;20100;-82
2022/04/30 04:21:37;;;;;;;34.30;15.85;;;;;;;12.25;63.09;95545.25;5048429;28;20116;-82
2022/04/30 04:26:48;;;;;;;31.75;15.75;;;;;;;12.03;63.74;95567.94;5039312;28;20076;-81
2022/04/30 04:29:16;;;;;;;31.80;17.20;;;;;;;12.29;63.80;95582.69;5048803;28;20021;-81
2022/04/30 04:31:43;;;;;;;27.63;16.23;;;;;;;12.66;63.47;95614.19;5037873;28;20435;-82
2022/04/30 04:34:09;;;;;;;34.15;16.45;;;;;;;12.31;64.13;95576.06;5031244;28;20047;-82
2022/04/30 04:36:35;;;;;;;26.48;16.00;;;;;;;12.49;63.55;95605.75;5029122;28;20032;-82
2022/04/30 04:39:00;;;;;;;29.20;16.77;;;;;;;12.79;62.92;95615.41;5027355;28;20559;-82
2022/04/30 04:41:26;;;;;;;31.50;16.33;;;;;;;12.15;62.59;95541.81;5030706;28;20117;-81
2022/04/30 04:43:51;;;;;;;39.28;16.98;;;;;;;12.26;62.85;95546.84;5031341;28;20061;-82
2022/04/30 04:46:17;;;;;;;25.15;16.60;;;;;;;12.38;62.77;95573.88;5026807;28;20163;-81
2022/04/30 04:48:42;;;;;;;31.08;16.23;;;;;;;12.29;62.75;95540.16;5029168;28;20059;-82
2022/04/30 04:51:08;;;;;;;29.90;16.27;;;;;;;12.46;62.40;95535.25;5009412;28;20121;-82
2022/04/30 04:53:34;;;;;;;28.20;16.55;;;;;;;12.91;62.46;95618.50;5012602;28;20037;-81
2022/04/30 04:56:02;;;;;;;35.97;16.10;;;;;;;12.71;62.42;95579.53;5029171;28;20056;-81
2022/04/30 04:58:27;;;;;;;30.35;17.23;;;;;;;12.45;62.59;95552.28;5030292;28;20029;-81
2022/04/30 05:00:53;;;;;;;31.88;15.80;;;;;;;12.13;62.51;95512.84;5030436;28;20083;-82
2022/04/30 05:03:18;;;;;;;27.00;16.58;;;;;;;12.27;63.01;95561.72;5030819;28;20456;-82
2022/04/30 05:05:44;;;;;;;28.73;15.95;;;;;;;12.99;63.03;95649.88;5029207;28;20040;-82
2022/04/30 05:08:09;;;;;;;29.50;16.30;;;;;;;13.09;62.97;95652.47;5029164;28;20029;-82
2022/04/30 05:10:36;;;;;;;34.10;16.75;;;;;;;12.55;62.56;95560.22;5029156;28;20033;-81
2022/04/30 05:13:02;;;;;;;36.50;18.40;;;;;;;12.96;62.46;95635.28;5030282;28;20075;-81
2022/04/30 05:15:27;;;;;;;43.70;17.58;;;;;;;12.16;61.91;95485.72;5029955;28;20049;-81
2022/04/30 05:17:53;;;;;;;34.30;17.10;;;;;;;12.80;61.40;95567.25;5028357;28;20620;-82
2022/04/30 05:20:18;;;;;;;32.00;17.52;;;;;;;13.22;61.21;95611.94;5029856;28;20029;-81
2022/04/30 05:22:44;;;;;;;29.77;16.65;;;;;;;11.71;60.14;95358.41;5031623;28;20030;-82
2022/04/30 05:25:09;;;;;;;25.45;15.23;;;;;;;13.76;60.24;95662.34;5050008;28;20025;-82
2022/04/30 05:27:35;;;;;;;29.05;15.82;;;;;;;13.88;59.77;95664.63;5050126;28;20040;-82
2022/04/30 05:30:00;;;;;;;32.92;16.15;;;;;;;13.94;59.53;95647.50;5049432;28;20035;-81
2022/04/30 05:32:26;;;;;;;26.38;16.58;;;;;;;14.09;60.07;95652.66;5049428;28;20060;-81
2022/04/30 05:34:51;;;;;;;32.45;15.20;;;;;;;13.66;59.34;95582.47;5031379;28;20060;-82
2022/04/30 05:37:16;;;;;;;33.88;16.48;;;;;;;14.26;58.13;95652.22;5049529;28;20067;-82
2022/04/30 05:39:42;;;;;;;26.20;15.75;;;;;;;13.71;57.46;95546.97;5049837;28;20033;-82
2022/04/30 05:42:07;;;;;;;22.67;13.73;;;;;;;14.56;57.49;95659.88;5049234;28;20037;-82
2022/04/30 05:44:33;;;;;;;21.13;14.48;;;;;;;13.85;57.06;95539.88;5049072;28;20032;-81
2022/04/30 05:46:58;;;;;;;30.73;14.82;;;;;;;14.32;56.70;95607.59;5049015;28;20037;-82
2022/04/30 05:49:24;;;;;;;21.67;14.88;;;;;;;14.44;56.34;95658.69;5031701;28;20041;-82
2022/04/30 05:51:49;;;;;;;21.48;14.00;;;;;;;14.58;56.56;95657.69;5030648;28;20033;-82
2022/04/30 05:54:16;;;;;;;21.40;14.13;;;;;;;14.43;56.24;95612.53;5031184;28;20040;-82
2022/04/30 05:56:41;;;;;;;24.27;15.27;;;;;;;14.31;57.11;95590.78;5049638;28;20036;-82
2022/04/30 05:59:07;;;;;;;24.27;14.57;;;;;;;14.14;57.14;95545.13;5048892;28;20037;-82
2022/04/30 06:01:32;;;;;;;22.10;13.80;;;;;;;14.52;56.27;95626.81;5031101;28;20051;-82
2022/04/30 06:03:58;;;;;;;24.45;14.93;;;;;;;14.13;57.22;95594.22;5031410;28;20128;-82
2022/04/30 06:06:23;;;;;;;26.90;14.10;;;;;;;14.48;57.57;95628.50;5049230;28;20033;-82
2022/04/30 06:08:49;;;;;;;20.25;14.20;;;;;;;14.66;57.49;95640.25;5049180;28;20028;-82
2022/04/30 06:11:14;;;;;;;22.63;13.60;;;;;;;15.08;57.06;95666.13;5030855;28;20487;-82
2022/04/30 06:13:40;;;;;;;27.58;15.15;;;;;;;14.07;55.80;95518.81;5031091;28;20035;-82
2022/04/30 06:16:05;;;;;;;20.67;14.02;;;;;;;14.75;55.71;95621.72;5049171;28;20123;-82
2022/04/30 06:18:31;;;;;;;21.75;13.75;;;;;;;14.36;55.04;95552.56;5048936;28;20044;-82
2022/04/30 06:20:56;;;;;;;19.20;13.00;;;;;;;14.95;55.63;95661.50;5048433;28;20491;-82
2022/04/30 06:23:22;;;;;;;20.30;13.70;;;;;;;14.86;55.35;95604.47;5048305;28;20068;-81
2022/04/30 06:25:48;;;;;;;19.85;13.95;;;;;;;14.67;54.77;95573.25;5030590;28;20033;-82
2022/04/30 06:28:14;;;;;;;21.17;12.95;;;;;;;14.96;53.96;95613.13;5048410;28;20044;-82
2022/04/30 06:30:41;;;;;;;22.05;13.45;;;;;;;15.23;54.44;95668.56;5049033;28;20025;-83
2022/04/30 06:33:07;;;;;;;20.80;12.75;;;;;;;15.31;53.91;95667.91;5030517;28;20559;-82
2022/04/30 06:35:32;;;;;;;24.95;14.95;;;;;;;14.70;53.23;95593.22;5030732;28;20120;-82
2022/04/30 06:37:58;;;;;;;19.52;14.52;;;;;;;14.33;53.28;95527.28;5048563;28;20419;-82
2022/04/30 06:40:23;;;;;;;20.02;13.80;;;;;;;14.62;53.31;95551.97;5030483;28;20037;-82
2022/04/30 06:42:49;;;;;;;18.40;12.98;;;;;;;15.35;54.22;95662.75;5048588;28;20036;-82
2022/04/30 06:45:17;;;;;;;19.17;12.40;;;;;;;14.75;53.61;95558.44;5048558;28;20082;-82
2022/04/30 06:47:43;;;;;;;16.95;12.88;;;;;;;15.13;53.65;95607.25;5048741;28;20201;-82
2022/04/30 06:50:09;;;;;;;15.13;11.45;;;;;;;14.99;53.04;95582.38;5048057;28;20033;-81
2022/04/30 06:57:07;;;;;;;21.13;11.85;;;;;;;14.71;53.46;95564.66;5048068;28;20166;-82
2022/04/30 06:58:06;;;;;;;19.75;12.75;;;;;;;15.35;53.83;95655.53;5049278;28;20429;-82
2022/04/30 07:03:15;;;;;;;15.98;11.65;;;;;;;15.52;52.52;95651.53;5047447;28;20093;-82
2022/04/30 07:05:41;;;;;;;21.00;13.38;;;;;;;14.76;53.18;95545.88;5029061;28;20037;-81
2022/04/30 07:08:07;;;;;;;20.95;12.82;;;;;;;14.95;53.47;95592.06;5048065;28;20036;-82
2022/04/30 07:10:32;;;;;;;27.10;14.40;;;;;;;14.62;53.54;95564.50;5047552;28;20033;-82
2022/04/30 07:12:57;;;;;;;25.55;15.05;;;;;;;14.58;53.26;95555.47;5047400;28;20571;-82
2022/04/30 07:15:23;;;;;;;22.13;14.18;;;;;;;15.12;53.14;95639.59;5047665;28;20525;-82
2022/04/30 07:17:48;;;;;;;26.73;15.27;;;;;;;14.26;55.04;95550.84;5048175;28;20037;-81
2022/04/30 07:20:14;;;;;;;23.98;15.32;;;;;;;14.39;54.78;95531.47;5030296;28;20036;-82
2022/04/30 07:22:39;;;;;;;19.60;12.38;;;;;;;14.75;55.27;95582.47;5029706;28;20028;-82
2022/04/30 07:25:07;;;;;;;16.42;11.13;;;;;;;15.11;54.40;95630.00;5048262;28;20487;-82
2022/04/30 07:27:32;;;;;;;19.92;12.27;;;;;;;14.55;54.91;95577.44;5047457;28;20079;-82
2022/04/30 07:29:58;;;;;;;17.10;12.50;;;;;;;15.30;53.94;95658.28;5047797;28;20079;-82
2022/04/30 07:32:23;;;;;;;18.17;11.35;;;;;;;14.82;54.66;95569.53;5047463;28;20489;-82
2022/04/30 07:34:48;;;;;;;25.13;13.77;;;;;;;14.95;53.90;95629.47;5029613;28;20047;-82
2022/04/30 07:37:14;;;;;;;19.67;12.85;;;;;;;14.69;53.54;95572.94;5047426;28;20465;-81
2022/04/30 07:39:39;;;;;;;20.17;12.82;;;;;;;14.57;54.03;95551.25;5029090;28;20101;-82
2022/04/30 07:42:05;;;;;;;17.63;13.05;;;;;;;14.77;53.94;95558.16;5047463;28;20043;-82
2022/04/30 07:44:31;;;;;;;24.52;13.60;;;;;;;14.48;54.64;95524.41;5028975;28;20067;-82
2022/04/30 07:46:57;;;;;;;24.13;12.27;;;;;;;14.86;53.79;95538.53;5029199;28;20116;-82
2022/04/30 07:49:23;;;;;;;24.48;12.82;;;;;;;14.71;52.83;95519.28;5030615;28;20151;-82
2022/04/30 07:51:57;;;;;;;27.08;12.07;;;;;;;15.37;52.88;95623.19;5029109;28;20029;-82
2022/04/30 07:54:26;;;;;;;24.00;12.68;;;;;;;15.39;53.06;95586.28;5029440;28;20068;-82
2022/04/30 07:56:56;;;;;;;28.33;12.73;;;;;;;15.58;52.67;95629.00;5047266;28;20118;-82
2022/04/30 07:59:22;;;;;;;18.42;13.05;;;;;;;15.10;52.53;95548.28;5046841;28;20036;-81
2022/04/30 08:01:52;;;;;;;17.98;12.50;;;;;;;15.52;52.46;95588.16;5046359;28;20116;-81
2022/04/30 08:04:18;;;;;;;20.55;11.38;;;;;;;15.77;52.68;95621.72;5046933;28;20033;-82
2022/04/30 08:06:43;;;;;;;26.17;12.18;;;;;;;15.75;52.63;95637.25;5046749;28;20095;-82
2022/04/30 08:09:09;;;;;;;17.55;11.02;;;;;;;15.32;51.35;95543.91;5028841;28;20068;-82
2022/04/30 08:11:35;;;;;;;26.77;12.23;;;;;;;15.20;51.42;95494.69;5026877;28;20025;-82
2022/04/30 08:14:00;;;;;;;17.65;10.95;;;;;;;15.72;51.88;95571.78;5046543;28;20124;-82
2022/04/30 08:16:27;;;;;;;16.95;11.40;;;;;;;15.60;52.62;95531.38;5050456;28;20025;-82
2022/04/30 08:18:54;;;;;;;13.90;10.38;;;;;;;15.87;51.63;95580.63;5051629;28;20029;-82
2022/04/30 08:21:19;;;;;;;16.92;11.18;;;;;;;15.32;51.78;95517.19;5050708;28;20029;-82
2022/04/30 08:23:44;;;;;;;14.50;10.30;;;;;;;14.99;51.57;95422.94;5051003;28;20055;-82
2022/04/30 08:26:10;;;;;;;23.85;11.38;;;;;;;15.39;52.73;95474.03;5051114;28;20041;-82
2022/04/30 08:28:35;;;;;;;21.48;10.18;;;;;;;15.97;49.73;95534.94;5050748;28;20037;-82
2022/04/30 08:31:01;;;;;;;29.73;11.82;;;;;;;16.58;49.99;95593.34;5032882;28;20033;-82
2022/04/30 08:33:26;;;;;;;29.58;12.05;;;;;;;16.77;49.25;95623.50;5032354;28;20040;-82
2022/04/30 08:35:53;;;;;;;21.73;10.73;;;;;;;16.03;48.46;95515.03;5051172;28;20033;-82
2022/04/30 08:38:19;;;;;;;22.60;12.20;;;;;;;16.73;48.86;95595.72;5050677;28;20111;-82
2022/04/30 08:40:44;;;;;;;23.92;9.80;;;;;;;16.80;49.82;95608.69;5050551;28;20131;-82
2022/04/30 08:43:12;;;;;;;14.45;7.93;;;;;;;16.13;49.93;95525.53;5050471;28;20032;-82
2022/04/30 08:45:40;;;;;;;18.80;7.82;;;;;;;16.59;49.85;95585.03;5051379;28;20028;-81
2022/04/30 08:48:08;;;;;;;20.05;8.18;;;;;;;16.98;49.66;95616.59;5050327;28;20332;-82
2022/04/30 08:50:33;;;;;;;14.52;7.45;;;;;;;17.04;51.05;95621.81;5032751;28;20052;-82
2022/04/30 08:52:59;;;;;;;12.57;6.60;;;;;;;16.42;50.75;95563.44;5032040;28;20393;-82
2022/04/30 08:55:24;;;;;;;20.65;7.03;;;;;;;16.07;51.38;95545.44;5050226;28;20039;-83
2022/04/30 08:57:50;;;;;;;13.70;6.72;;;;;;;16.55;50.63;95618.06;5050422;28;20031;-82
2022/04/30 09:00:16;;;;;;;12.38;7.55;;;;;;;15.79;49.51;95524.06;5050070;28;20029;-82
2022/04/30 09:02:55;;;;;;;12.45;6.72;;;;;;;15.36;49.86;95466.59;5032210;28;20033;-82
2022/04/30 09:05:22;;;;;;;12.48;6.65;;;;;;;16.37;50.17;95611.72;5032073;28;20028;-82
2022/04/30 09:07:56;;;;;;;16.55;7.05;;;;;;;16.16;50.44;95602.53;5050131;28;20032;-82
2022/04/30 09:10:23;;;;;;;12.50;7.60;;;;;;;15.85;50.11;95532.78;5049818;28;20646;-82
2022/04/30 09:12:51;;;;;;;10.05;7.18;;;;;;;15.29;50.92;95431.47;5051000;28;20094;-82
2022/04/30 09:15:16;;;;;;;11.48;7.05;;;;;;;16.32;49.94;95613.72;5031861;28;20086;-82
2022/04/30 09:17:42;;;;;;;15.45;7.15;;;;;;;15.79;50.08;95526.72;5031459;28;20117;-81
2022/04/30 09:20:16;;;;;;;23.65;8.30;;;;;;;16.30;50.29;95605.19;5032353;28;20083;-82
2022/04/30 09:22:42;;;;;;;20.48;6.97;;;;;;;16.17;50.96;95529.97;5050244;28;20028;-82
2022/04/30 09:25:13;;;;;;;7.55;5.32;;;;;;;16.57;49.10;95597.13;5049977;28;20115;-82
2022/04/30 09:27:46;;;;;;;8.70;6.43;;;;;;;15.97;49.56;95492.16;5049258;28;20442;-82
2022/04/30 09:30:21;;;;;;;15.45;5.57;;;;;;;16.67;48.88;95599.63;5050257;28;20040;-82
2022/04/30 09:33:09;;;;;;;5.97;4.25;;;;;;;16.32;48.10;95601.13;5049827;28;20067;-82
2022/04/30 09:38:23;;;;;;;10.25;4.38;;;;;;;16.25;48.05;95583.91;5049478;28;20078;-82
2022/04/30 09:40:57;;;;;;;8.90;4.75;;;;;;;16.27;47.02;95597.75;5031053;28;20037;-82
2022/04/30 09:43:42;;;;;;;8.05;5.07;;;;;;;16.17;46.93;95582.72;5031348;28;20032;-82
2022/04/30 09:46:07;;;;;;;7.47;4.32;;;;;;;15.96;47.24;95581.50;5050020;28;20109;-82
2022/04/30 09:54:19;;;;;;;8.32;4.45;;;;;;;17.30;42.58;95422.56;5039746;28;20151;-82
2022/04/30 09:56:47;;;;;;;9.45;4.10;;;;;;;18.98;40.89;95506.22;5031017;28;20029;-82
2022/04/30 09:59:14;;;;;;;6.97;4.13;;;;;;;20.01;40.84;95570.50;5030916;28;20099;-82
2022/04/30 10:01:44;;;;;;;6.07;4.07;;;;;;;21.41;36.74;95570.06;5048878;28;20419;-82
2022/04/30 10:04:11;;;;;;;14.77;3.88;;;;;;;22.18;35.17;95568.44;5049381;28;20107;-82
2022/04/30 10:06:43;;;;;;;10.32;4.30;;;;;;;23.21;34.03;95558.81;5049110;28;20033;-82
2022/04/30 10:09:12;;;;;;;10.52;4.43;;;;;;;23.09;32.33;95442.53;5049168;28;20064;-82
2022/04/30 10:11:46;;;;;;;8.30;4.40;;;;;;;24.05;31.77;95440.28;5049149;28;20418;-81
2022/04/30 10:14:15;;;;;;;7.10;3.45;;;;;;;25.34;29.63;95537.56;5049249;28;20243;-82
2022/04/30 10:16:42;;;;;;;5.07;3.47;;;;;;;24.96;28.87;95454.28;5031033;28;20041;-83
2022/04/30 10:19:14;;;;;;;9.13;4.30;;;;;;;25.42;28.72;95442.69;5031055;28;20025;-82
2022/04/30 10:21:40;;;;;;;8.55;4.45;;;;;;;26.05;28.16;95530.72;5048703;28;20043;-82
2022/04/30 10:24:07;;;;;;;9.55;4.28;;;;;;;26.11;27.79;95526.56;5048962;28;20057;-82
2022/04/30 10:26:33;;;;;;;9.80;4.55;;;;;;;25.49;28.11;95486.25;5049084;28;20041;-82
2022/04/30 10:29:00;;;;;;;7.68;4.15;;;;;;;25.72;28.84;95482.44;5048088;28;20033;-82
2022/04/30 10:31:25;;;;;;;13.25;3.95;;;;;;;26.37;27.98;95531.25;5030183;28;20280;-81
2022/04/30 10:33:51;;;;;;;8.07;3.78;;;;;;;25.86;28.48;95472.97;5048565;28;20025;-82
2022/04/30 10:36:18;;;;;;;7.93;3.70;;;;;;;26.22;28.25;95517.78;5048153;28;20506;-82
2022/04/30 10:38:54;;;;;;;9.68;3.90;;;;;;;26.31;28.14;95497.38;5030012;28;20124;-82
2022/04/30 10:41:19;;;;;;;9.82;4.65;;;;;;;26.01;28.47;95523.69;5048213;28;20036;-82
2022/04/30 10:43:45;;;;;;;9.15;4.03;;;;;;;25.62;29.07;95460.53;5048407;28;20082;-82
2022/04/30 10:46:13;;;;;;;9.25;4.22;;;;;;;26.24;28.38;95520.94;5048474;28;20120;-82
2022/04/30 10:48:38;;;;;;;6.22;3.60;;;;;;;26.28;28.90;95494.59;5030718;28;20623;-82
2022/04/30 10:51:06;;;;;;;7.57;3.80;;;;;;;26.58;27.42;95487.25;5029857;28;20381;-82
2022/04/30 10:53:32;;;;;;;9.55;3.60;;;;;;;25.96;27.84;95519.31;5048214;28;20029;-82
2022/04/30 10:56:00;;;;;;;10.80;4.47;;;;;;;25.98;27.70;95502.66;5048174;28;20499;-82
2022/04/30 10:58:27;;;;;;;6.93;4.53;;;;;;;24.83;28.06;95406.72;5048162;28;20040;-81
2022/04/30 11:00:54;;;;;;;6.50;3.97;;;;;;;24.60;28.98;95468.22;5047851;28;20458;-82
2022/04/30 11:03:30;;;;;;;14.95;4.03;;;;;;;24.14;29.81;95413.00;5048002;28;20029;-82
2022/04/30 11:05:56;;;;;;;7.78;3.17;;;;;;;24.93;29.53;95514.69;5047914;28;20111;-82
2022/04/30 11:08:22;;;;;;;12.40;5.10;;;;;;;24.48;29.34;95442.06;5029778;28;20471;-82
2022/04/30 11:10:53;;;;;;;13.80;4.00;;;;;;;24.32;29.05;95454.88;5048149;28;20025;-83
2022/04/30 11:13:18;;;;;;;8.68;3.92;;;;;;;24.95;28.90;95511.59;5029514;28;20041;-82
2022/04/30 11:15:44;;;;;;;11.40;4.05;;;;;;;24.84;28.60;95448.97;5028689;28;20182;-82
2022/04/30 11:18:10;;;;;;;8.88;3.30;;;;;;;24.46;28.77;95484.19;5029023;28;20040;-82
2022/04/30 11:20:35;;;;;;;6.90;3.25;;;;;;;24.13;29.39;95508.97;5047599;28;20450;-82
2022/04/30 11:23:01;;;;;;;8.07;3.25;;;;;;;24.10;30.30;95466.34;5034534;28;20107;-82
2022/04/30 11:25:37;;;;;;;6.20;3.38;;;;;;;24.27;29.88;95512.03;5028973;28;20032;-82
2022/04/30 11:28:10;;;;;;;8.70;3.45;;;;;;;23.82;30.99;95401.44;5030057;28;20526;-82
2022/04/30 11:30:41;;;;;;;6.22;3.05;;;;;;;25.08;30.97;95506.84;5029963;28;20518;-82
2022/04/30 11:33:07;;;;;;;;;;;;;;;24.75;31.01;95499.94;5029946;28;20033;-81
2022/04/30 11:35:33;;;;;;;4.18;2.80;;;;;;;24.40;29.32;95426.00;5029414;28;19912;-82
2022/04/30 11:37:59;;;;;;;6.90;3.25;;;;;;;24.09;29.52;95418.72;5047435;28;20044;-82
2022/04/30 11:40:26;;;;;;;7.57;2.95;;;;;;;24.20;30.47;95482.06;5045999;28;20033;-82
2022/04/30 11:42:59;;;;;;;6.30;3.50;;;;;;;24.14;31.65;95497.78;5045746;28;20383;-82
2022/04/30 11:45:29;;;;;;;6.78;2.92;;;;;;;23.94;31.69;95498.88;5027834;28;20936;-83
2022/04/30 11:47:59;;;;;;;9.65;3.65;;;;;;;22.94;31.42;95408.94;5045374;28;20116;-82
2022/04/30 11:50:26;;;;;;;12.05;4.13;;;;;;;22.70;32.09;95422.53;5029223;28;20033;-81
2022/04/30 11:52:53;;;;;;;5.97;3.30;;;;;;;23.19;32.42;95501.53;5050372;28;20032;-82
2022/04/30 11:55:20;;;;;;;5.05;3.40;;;;;;;23.29;31.96;95495.63;5051446;28;20029;-82